CheckWX is a tool to help pilots better visualize weather data.  It is not intended as a substitute for an official pre-flight weather briefing.

06:59:57 UTC

LSZB TAF
Bern Belp Airport
Bern, Switzerland
TAF LSZB 190525Z 1906/1915 VRB03KT CAVOK BECMG 1908/1911 9999 FEW050

Jun-19@
06:00 UTC

Jun-19 @ 06:00 UTC

Jun-19@
08:00 UTC

Jun-19 @ 08:00 UTC

TAF LSZB 190525Z 1906/1915 VRB03KT CAVOK
Wind
  • Variable at 3 KTS
Conditions
No significant weather
Cloud Levels
  • No significant clouds

Jun-19@
08:00 UTC

Jun-19 @ 08:00 UTC

Jun-19@
15:00 UTC

Jun-19 @ 15:00 UTC

BECMG 1908/1911 9999 FEW050

Becoming

Becoming Conditions expected by Wed, Jun 19, 2019 @ 11:00 UTC

Wind
  • Variable at 3 KTS
Conditions
No significant weather
Cloud Levels
  • Few at 5,000' AGL